createdAt,value
2022-08-17T00:01:56.630Z,16.30
2022-08-17T00:04:02.064Z,16.83
2022-08-17T00:06:08.740Z,14.70
2022-08-17T00:08:13.003Z,15.73
2022-08-17T00:10:15.069Z,17.17
2022-08-17T00:12:41.715Z,16.05
2022-08-17T00:14:40.248Z,15.48
2022-08-17T00:16:55.453Z,16.13
2022-08-17T00:19:07.449Z,15.55
2022-08-17T00:21:11.879Z,15.40
2022-08-17T00:23:18.137Z,16.30
2022-08-17T00:25:20.341Z,15.15
2022-08-17T00:27:22.653Z,15.98
2022-08-17T00:29:24.990Z,16.65
2022-08-17T00:31:27.453Z,16.30
2022-08-17T00:33:31.816Z,15.95
2022-08-17T00:35:35.072Z,16.23
2022-08-17T00:37:37.085Z,15.55
2022-08-17T00:39:39.274Z,15.55
2022-08-17T00:41:42.447Z,16.05
2022-08-17T00:43:50.850Z,16.80
2022-08-17T00:45:53.712Z,15.45
2022-08-17T00:47:55.780Z,17.30
2022-08-17T00:49:57.736Z,15.88
2022-08-17T00:52:11.683Z,16.90
2022-08-17T00:54:19.124Z,18.42
2022-08-17T00:56:29.073Z,18.55
2022-08-17T00:58:36.276Z,19.73
2022-08-17T01:00:43.156Z,20.13
2022-08-17T01:02:47.159Z,21.02
2022-08-17T01:04:52.931Z,20.40
2022-08-17T01:06:57.090Z,22.10
2022-08-17T01:09:00.087Z,23.73
2022-08-17T01:11:03.047Z,22.23
2022-08-17T01:13:06.005Z,25.15
2022-08-17T01:15:08.749Z,24.00
2022-08-17T01:17:15.194Z,25.17
2022-08-17T01:19:30.106Z,24.15
2022-08-17T01:21:57.679Z,24.75
2022-08-17T01:24:05.654Z,24.92
2022-08-17T01:26:07.726Z,24.75
2022-08-17T01:28:09.988Z,25.77
2022-08-17T01:30:58.091Z,26.48
2022-08-17T01:32:35.466Z,25.00
2022-08-17T01:34:42.337Z,26.90
2022-08-17T01:36:47.890Z,26.45
2022-08-17T01:38:50.196Z,27.08
2022-08-17T01:40:58.118Z,27.33
2022-08-17T01:43:07.449Z,27.02
2022-08-17T01:45:14.902Z,28.02
2022-08-17T01:47:19.847Z,27.77
2022-08-17T01:49:23.159Z,26.42
2022-08-17T01:51:32.837Z,24.52
2022-08-17T01:53:39.953Z,25.43
2022-08-17T01:55:48.248Z,25.48
2022-08-17T01:57:50.811Z,23.92
2022-08-17T01:59:52.727Z,24.35
2022-08-17T02:01:56.584Z,24.15
2022-08-17T02:04:01.165Z,25.33
2022-08-17T02:06:05.391Z,25.52
2022-08-17T02:08:19.850Z,26.30
2022-08-17T02:10:22.332Z,25.98
2022-08-17T02:12:47.940Z,27.45
2022-08-17T02:14:47.143Z,27.42
2022-08-17T02:16:49.177Z,27.40
2022-08-17T02:18:51.125Z,27.45
2022-08-17T02:20:53.943Z,27.15
2022-08-17T02:22:55.989Z,26.45
2022-08-17T02:25:01.885Z,26.42
2022-08-17T02:27:04.889Z,28.02
2022-08-17T02:29:07.509Z,27.92
2022-08-17T02:31:12.748Z,27.48
2022-08-17T02:33:15.093Z,28.02
2022-08-17T02:35:17.043Z,27.65
2022-08-17T02:37:22.041Z,27.83
2022-08-17T02:39:24.183Z,27.58
2022-08-17T02:41:25.985Z,26.50
2022-08-17T02:43:28.890Z,27.70
2022-08-17T02:45:30.972Z,25.35
2022-08-17T02:47:33.246Z,27.15
2022-08-17T02:49:35.269Z,26.65
2022-08-17T02:51:37.099Z,27.58
2022-08-17T02:53:50.787Z,27.13
2022-08-17T02:55:53.058Z,26.45
2022-08-17T02:57:55.781Z,27.27
2022-08-17T02:59:57.680Z,27.92
2022-08-17T03:01:59.628Z,27.90
2022-08-17T03:04:01.742Z,27.30
2022-08-17T03:06:05.125Z,25.73
2022-08-17T03:08:07.470Z,25.77
2022-08-17T03:10:15.100Z,25.95
2022-08-17T03:12:18.107Z,25.58
2022-08-17T03:14:20.166Z,25.65
2022-08-17T03:16:28.267Z,26.27
2022-08-17T03:18:30.459Z,25.30
2022-08-17T03:20:33.737Z,25.80
2022-08-17T03:22:42.345Z,26.13
2022-08-17T03:24:50.230Z,26.10
2022-08-17T03:26:52.760Z,25.83
2022-08-17T03:28:54.668Z,25.90
2022-08-17T03:30:56.789Z,25.92
2022-08-17T03:33:01.142Z,25.33
2022-08-17T03:35:03.098Z,25.45
2022-08-17T03:37:05.074Z,23.38
2022-08-17T03:39:07.164Z,24.83
2022-08-17T03:41:09.147Z,24.15
2022-08-17T03:43:11.201Z,24.02
2022-08-17T03:45:16.490Z,24.58
2022-08-17T03:47:37.066Z,26.02
2022-08-17T03:49:57.676Z,25.13
2022-08-17T03:52:18.335Z,26.10
2022-08-17T03:54:38.688Z,26.98
2022-08-17T03:56:44.728Z,25.75
2022-08-17T03:58:47.551Z,25.67
2022-08-17T04:00:51.155Z,26.27
2022-08-17T04:02:53.456Z,25.17
2022-08-17T04:04:55.918Z,26.20
2022-08-17T04:06:58.112Z,27.25
2022-08-17T04:09:00.226Z,27.85
2022-08-17T04:11:02.341Z,26.70
2022-08-17T04:13:04.694Z,26.70
2022-08-17T04:15:07.286Z,25.48
2022-08-17T04:17:09.163Z,26.77
2022-08-17T04:19:11.519Z,26.10
2022-08-17T04:21:13.468Z,26.75
2022-08-17T04:23:17.971Z,27.23
2022-08-17T04:25:20.064Z,27.00
2022-08-17T04:27:22.049Z,26.77
2022-08-17T04:29:26.319Z,27.92
2022-08-17T04:31:56.413Z,26.77
2022-08-17T04:33:58.394Z,27.85
2022-08-17T04:36:03.161Z,27.70
2022-08-17T04:38:06.447Z,27.80
2022-08-17T04:40:27.586Z,27.45
2022-08-17T04:42:30.778Z,28.33
2022-08-17T04:44:37.375Z,29.25
2022-08-17T04:46:40.288Z,27.58
2022-08-17T04:48:46.264Z,29.15
2022-08-17T04:50:50.606Z,28.45
2022-08-17T04:52:52.572Z,28.05
2022-08-17T04:54:54.529Z,28.70
2022-08-17T04:56:56.592Z,27.92
2022-08-17T04:59:02.771Z,27.85
2022-08-17T05:01:06.084Z,26.63
2022-08-17T05:03:08.233Z,26.50
2022-08-17T05:05:10.147Z,25.90
2022-08-17T05:07:17.616Z,26.52
2022-08-17T05:09:21.949Z,26.80
2022-08-17T05:11:26.458Z,25.95
2022-08-17T05:13:31.807Z,27.10
2022-08-17T05:15:36.160Z,26.10
2022-08-17T05:17:37.991Z,26.98
2022-08-17T05:19:39.861Z,26.50
2022-08-17T05:21:50.309Z,26.83
2022-08-17T05:23:56.242Z,27.17
2022-08-17T05:25:58.649Z,25.67
2022-08-17T05:28:00.511Z,27.23
2022-08-17T05:30:04.306Z,26.20
2022-08-17T05:32:39.692Z,26.65
2022-08-17T05:36:43.861Z,25.77
2022-08-17T05:38:46.087Z,26.42
2022-08-17T05:40:48.460Z,27.15
2022-08-17T05:42:50.982Z,26.23
2022-08-17T05:44:52.916Z,27.58
2022-08-17T05:46:55.005Z,26.48
2022-08-17T05:49:04.439Z,26.15
2022-08-17T05:51:12.158Z,27.92
2022-08-17T05:53:33.059Z,27.35
2022-08-17T05:56:01.723Z,27.65
2022-08-17T05:58:45.618Z,26.42
2022-08-17T06:01:13.144Z,27.30
2022-08-17T06:03:33.342Z,28.35
2022-08-17T06:05:51.481Z,29.55
2022-08-17T06:07:57.631Z,29.80
2022-08-17T06:10:31.698Z,28.30
2022-08-17T06:12:42.098Z,28.98
2022-08-17T06:14:49.484Z,30.05
2022-08-17T06:16:59.321Z,31.42
2022-08-17T06:19:14.726Z,30.87
2022-08-17T06:21:20.028Z,29.67
2022-08-17T06:23:39.326Z,31.25
2022-08-17T06:25:47.798Z,29.30
2022-08-17T06:27:55.713Z,28.92
2022-08-17T06:30:09.430Z,30.67
2022-08-17T06:32:13.225Z,30.38
2022-08-17T06:34:15.702Z,30.30
2022-08-17T06:36:28.153Z,30.95
2022-08-17T06:39:03.246Z,31.98
2022-08-17T06:41:18.010Z,31.58
2022-08-17T06:43:39.704Z,29.58
2022-08-17T06:45:49.546Z,30.15
2022-08-17T06:48:24.477Z,32.57
2022-08-17T06:50:44.013Z,30.85
2022-08-17T06:52:57.639Z,31.77
2022-08-17T06:55:08.066Z,30.50
2022-08-17T06:57:30.627Z,29.45
2022-08-17T06:59:55.124Z,31.52
2022-08-17T07:02:05.650Z,31.40
2022-08-17T07:04:13.076Z,30.23
2022-08-17T07:06:18.135Z,30.30
2022-08-17T07:08:27.682Z,31.13
2022-08-17T07:10:50.982Z,29.35
2022-08-17T07:12:56.022Z,30.13
2022-08-17T07:15:12.949Z,31.55
2022-08-17T07:17:17.383Z,31.00
2022-08-17T07:19:24.433Z,30.02
2022-08-17T07:21:55.114Z,31.70
2022-08-17T07:24:29.537Z,32.03
2022-08-17T07:26:32.098Z,31.35
2022-08-17T07:28:35.579Z,31.85
2022-08-17T07:30:47.375Z,32.33
2022-08-17T07:32:58.472Z,30.20
2022-08-17T07:37:18.923Z,30.77
2022-08-17T07:39:28.182Z,31.35
2022-08-17T07:41:53.178Z,32.03
2022-08-17T07:43:58.470Z,30.40
2022-08-17T07:46:36.939Z,33.28
2022-08-17T07:48:41.362Z,31.40
2022-08-17T07:50:43.035Z,31.50
2022-08-17T07:52:52.608Z,31.58
2022-08-17T07:54:54.640Z,33.15
2022-08-17T07:57:02.175Z,32.10
2022-08-17T07:59:10.307Z,31.90
2022-08-17T08:01:18.477Z,33.20
2022-08-17T08:03:32.029Z,32.00
2022-08-17T08:05:50.171Z,34.35
2022-08-17T08:07:58.403Z,33.67
2022-08-17T08:10:14.030Z,33.80
2022-08-17T08:12:33.362Z,34.00
2022-08-17T08:14:38.639Z,35.28
2022-08-17T08:16:55.258Z,34.38
2022-08-17T08:18:59.907Z,32.20
2022-08-17T08:21:09.608Z,33.53
2022-08-17T08:23:21.070Z,32.80
2022-08-17T08:25:45.422Z,32.88
2022-08-17T08:28:08.858Z,33.13
2022-08-17T08:30:16.231Z,33.13
2022-08-17T08:32:30.287Z,31.02
2022-08-17T08:34:45.020Z,30.73
2022-08-17T08:37:15.748Z,30.55
2022-08-17T08:39:28.543Z,29.25
2022-08-17T08:42:10.029Z,28.83
2022-08-17T08:44:23.873Z,28.08
2022-08-17T08:47:14.437Z,28.80
2022-08-17T08:50:03.222Z,27.08
2022-08-17T08:52:20.181Z,26.25
2022-08-17T08:54:53.849Z,25.38
2022-08-17T08:59:54.143Z,26.30
2022-08-17T09:02:29.522Z,25.13
2022-08-17T09:05:14.393Z,26.10
2022-08-17T09:07:31.688Z,28.27
2022-08-17T09:09:59.499Z,25.77
2022-08-17T09:12:29.249Z,25.40
2022-08-17T09:14:46.588Z,25.88
2022-08-17T09:17:05.891Z,24.13
2022-08-17T09:19:34.101Z,24.13
2022-08-17T09:21:47.961Z,25.15
2022-08-17T09:24:35.867Z,23.45
2022-08-17T09:26:46.446Z,21.75
2022-08-17T09:28:52.732Z,22.98
2022-08-17T09:31:03.127Z,22.30
2022-08-17T09:33:08.618Z,22.30
2022-08-17T09:35:15.925Z,22.63
2022-08-17T09:37:20.438Z,20.85
2022-08-17T09:39:33.455Z,23.27
2022-08-17T09:41:52.883Z,21.48
2022-08-17T09:44:23.133Z,21.98
2022-08-17T09:46:41.013Z,20.67
2022-08-17T09:48:55.294Z,21.48
2022-08-17T09:51:07.137Z,20.95
2022-08-17T09:53:09.474Z,21.10
2022-08-17T09:55:11.277Z,19.33
2022-08-17T09:57:32.562Z,19.92
2022-08-17T10:00:11.339Z,18.17
2022-08-17T10:02:50.565Z,17.52
2022-08-17T10:05:12.095Z,18.13
2022-08-17T10:07:32.568Z,16.33
2022-08-17T10:09:48.756Z,14.68
2022-08-17T10:12:30.132Z,14.63
2022-08-17T10:14:55.062Z,15.73
2022-08-17T10:17:22.353Z,16.38
2022-08-17T10:19:26.816Z,15.55
2022-08-17T10:22:00.881Z,14.32
2022-08-17T10:24:33.487Z,13.50
2022-08-17T10:26:55.419Z,13.48
2022-08-17T10:29:11.613Z,13.68
2022-08-17T10:31:40.798Z,12.73
2022-08-17T10:34:19.112Z,11.30
2022-08-17T10:36:37.927Z,10.85
2022-08-17T10:38:42.305Z,10.93
2022-08-17T10:40:43.912Z,10.70
2022-08-17T10:42:51.879Z,10.80
2022-08-17T10:45:13.978Z,11.20
2022-08-17T10:47:18.206Z,11.77
2022-08-17T10:49:22.596Z,12.05
2022-08-17T10:51:41.697Z,12.23
2022-08-17T10:53:43.683Z,13.00
2022-08-17T10:56:14.349Z,13.02
2022-08-17T10:58:24.532Z,12.45
2022-08-17T11:00:43.939Z,14.30
2022-08-17T11:02:50.225Z,14.02
2022-08-17T11:05:08.832Z,12.10
2022-08-17T11:07:35.474Z,12.40
2022-08-17T11:10:09.973Z,12.13
2022-08-17T11:12:49.244Z,11.75
2022-08-17T11:15:20.111Z,11.60
2022-08-17T11:17:57.699Z,11.70
2022-08-17T11:20:38.157Z,11.20
2022-08-17T11:23:08.134Z,11.13
2022-08-17T11:25:21.673Z,10.98
2022-08-17T11:27:29.542Z,10.63
2022-08-17T11:29:53.528Z,10.02
2022-08-17T11:32:02.721Z,9.30
2022-08-17T11:34:06.400Z,9.07
2022-08-17T11:36:49.481Z,8.20
2022-08-17T11:39:06.165Z,7.97
2022-08-17T11:41:20.238Z,8.00
2022-08-17T11:43:58.698Z,8.50
2022-08-17T11:46:25.923Z,8.00
2022-08-17T11:48:53.173Z,7.28
2022-08-17T11:51:54.215Z,8.35
2022-08-17T11:54:21.658Z,7.82
2022-08-17T11:56:34.071Z,7.38
2022-08-17T11:58:43.185Z,7.50
2022-08-17T12:00:45.902Z,7.40
2022-08-17T12:02:48.826Z,6.55
2022-08-17T12:05:14.774Z,6.55
2022-08-17T12:07:23.212Z,7.68
2022-08-17T12:09:29.932Z,6.95
2022-08-17T12:12:13.845Z,6.05
2022-08-17T12:14:45.084Z,5.60
2022-08-17T12:16:59.874Z,5.60
2022-08-17T12:19:03.734Z,6.63
2022-08-17T12:21:23.503Z,6.05
2022-08-17T12:23:40.588Z,6.03
2022-08-17T12:28:05.273Z,6.20
2022-08-17T12:30:14.493Z,5.70
2022-08-17T12:32:20.218Z,5.63
2022-08-17T12:34:27.937Z,6.00
2022-08-17T12:36:32.078Z,5.90
2022-08-17T12:38:36.242Z,5.55
2022-08-17T12:40:38.141Z,5.93
2022-08-17T12:42:41.499Z,5.82
2022-08-17T12:44:50.082Z,5.80
2022-08-17T12:47:00.982Z,5.15
2022-08-17T12:49:31.586Z,17.17
2022-08-17T12:53:35.989Z,8.75
2022-08-17T12:55:39.295Z,5.80
2022-08-17T12:57:54.368Z,5.30
2022-08-17T13:00:20.013Z,6.32
2022-08-17T13:02:53.779Z,5.93
2022-08-17T13:04:59.211Z,5.88
2022-08-17T13:07:03.162Z,5.70
2022-08-17T13:09:18.594Z,7.03
2022-08-17T13:11:24.871Z,6.18
2022-08-17T13:13:29.849Z,6.70
2022-08-17T13:15:51.276Z,6.57
2022-08-17T13:18:09.016Z,8.63
2022-08-17T13:20:15.834Z,10.23
2022-08-17T13:22:22.456Z,8.07
2022-08-17T13:24:26.427Z,8.40
2022-08-17T13:26:51.442Z,7.28
2022-08-17T13:28:54.521Z,8.23
2022-08-17T13:31:26.372Z,8.15
2022-08-17T13:33:44.628Z,8.32
2022-08-17T13:35:50.421Z,8.57
2022-08-17T13:38:10.508Z,11.50
2022-08-17T13:40:12.183Z,13.32
2022-08-17T13:42:32.815Z,13.80
2022-08-17T13:44:40.475Z,12.07
2022-08-17T13:46:52.488Z,11.05
2022-08-17T13:49:11.660Z,10.55
2022-08-17T13:51:19.865Z,13.35
2022-08-17T13:53:26.698Z,13.07
2022-08-17T13:55:31.312Z,13.65
2022-08-17T13:57:33.450Z,12.90
2022-08-17T13:59:54.513Z,12.73
2022-08-17T14:01:57.455Z,12.80
2022-08-17T14:04:01.923Z,9.88
2022-08-17T14:06:05.279Z,7.32
2022-08-17T14:08:07.350Z,6.03
2022-08-17T14:10:17.966Z,5.38
2022-08-17T14:12:23.091Z,4.70
2022-08-17T14:14:25.592Z,4.63
2022-08-17T14:16:27.295Z,4.88
2022-08-17T14:18:31.183Z,4.75
2022-08-17T14:20:53.239Z,4.68
2022-08-17T14:22:55.925Z,4.65
2022-08-17T14:24:59.910Z,4.47
2022-08-17T14:27:03.847Z,4.53
2022-08-17T14:29:05.624Z,5.10
2022-08-17T14:31:16.877Z,4.72
2022-08-17T14:33:22.599Z,5.25
2022-08-17T14:35:27.902Z,4.70
2022-08-17T14:37:30.972Z,5.72
2022-08-17T14:39:32.941Z,5.72
2022-08-17T14:41:35.517Z,5.57
2022-08-17T14:43:37.328Z,5.93
2022-08-17T14:45:39.023Z,6.05
2022-08-17T14:47:41.845Z,7.15
2022-08-17T14:49:43.906Z,6.35
2022-08-17T14:51:49.814Z,6.22
2022-08-17T14:53:51.538Z,6.65
2022-08-17T14:55:55.842Z,6.40
2022-08-17T14:57:57.578Z,6.70
2022-08-17T15:00:00.167Z,6.45
2022-08-17T15:02:05.014Z,6.85
2022-08-17T15:04:07.100Z,7.00
2022-08-17T15:06:09.842Z,7.22
2022-08-17T15:08:12.680Z,6.65
2022-08-17T15:10:16.043Z,7.20
2022-08-17T15:12:21.977Z,6.80
2022-08-17T15:14:23.731Z,7.53
2022-08-17T15:16:27.052Z,6.53
2022-08-17T15:18:29.847Z,6.90
2022-08-17T15:20:31.620Z,7.15
2022-08-17T15:22:33.344Z,7.15
2022-08-17T15:24:35.289Z,7.75
2022-08-17T15:26:38.070Z,7.63
2022-08-17T15:28:39.921Z,8.77
2022-08-17T15:30:43.825Z,9.10
2022-08-17T15:32:51.174Z,8.82
2022-08-17T15:34:58.746Z,9.32
2022-08-17T15:37:00.506Z,10.68
2022-08-17T15:39:03.697Z,10.85
2022-08-17T15:41:15.150Z,10.88
2022-08-17T15:43:24.806Z,9.15
2022-08-17T15:45:30.819Z,8.02
2022-08-17T15:47:32.678Z,8.25
2022-08-17T15:49:34.640Z,8.23
2022-08-17T15:51:36.761Z,7.40
2022-08-17T15:53:39.365Z,7.47
2022-08-17T15:55:41.220Z,7.03
2022-08-17T15:57:42.917Z,6.72
2022-08-17T15:59:46.349Z,5.90
2022-08-17T16:03:14.978Z,5.10
2022-08-17T16:04:30.153Z,5.93
2022-08-17T16:06:33.031Z,6.03
2022-08-17T16:08:35.462Z,5.70
2022-08-17T16:10:37.267Z,5.18
2022-08-17T16:12:39.002Z,5.13
2022-08-17T16:14:40.770Z,5.50
2022-08-17T16:16:42.484Z,5.47
2022-08-17T16:18:44.258Z,6.00
2022-08-17T16:20:45.958Z,6.35
2022-08-17T16:22:49.845Z,5.80
2022-08-17T16:24:56.953Z,6.25
2022-08-17T16:26:59.567Z,6.97
2022-08-17T16:29:05.260Z,7.35
2022-08-17T16:31:08.242Z,6.68
2022-08-17T16:33:12.284Z,6.47
2022-08-17T16:35:18.248Z,6.97
2022-08-17T16:37:20.061Z,6.20
2022-08-17T16:39:22.379Z,6.00
2022-08-17T16:41:47.538Z,6.95
2022-08-17T16:43:49.826Z,7.43
2022-08-17T16:45:52.341Z,5.95
2022-08-17T16:47:55.198Z,6.47
2022-08-17T16:49:56.959Z,5.40
2022-08-17T16:52:03.410Z,5.63
2022-08-17T16:54:06.343Z,6.05
2022-08-17T16:56:08.035Z,5.82
2022-08-17T16:58:10.231Z,6.07
2022-08-17T17:00:14.479Z,7.47
2022-08-17T17:02:25.331Z,6.32
2022-08-17T17:04:27.705Z,5.88
2022-08-17T17:06:46.310Z,6.72
2022-08-17T17:09:12.204Z,6.55
2022-08-17T17:11:36.477Z,5.60
2022-08-17T17:13:46.887Z,6.22
2022-08-17T17:16:24.019Z,6.28
2022-08-17T17:19:01.708Z,5.65
2022-08-17T17:21:04.829Z,5.97
2022-08-17T17:23:25.166Z,6.20
2022-08-17T17:25:32.988Z,6.53
2022-08-17T17:27:52.758Z,6.00
2022-08-17T17:30:04.795Z,6.13
2022-08-17T17:32:32.986Z,5.65
2022-08-17T17:34:36.485Z,6.35
2022-08-17T17:36:47.614Z,6.20
2022-08-17T17:38:54.053Z,6.82
2022-08-17T17:41:05.587Z,6.72
2022-08-17T17:43:37.209Z,7.15
2022-08-17T17:45:40.637Z,6.45
2022-08-17T17:47:43.239Z,6.28
2022-08-17T17:49:48.820Z,6.35
2022-08-17T17:52:11.149Z,5.95
2022-08-17T17:54:44.367Z,6.85
2022-08-17T17:57:04.363Z,7.75
2022-08-17T17:59:21.087Z,9.23
2022-08-17T18:01:31.988Z,8.93
2022-08-17T18:04:20.771Z,7.70
2022-08-17T18:06:56.560Z,7.38
2022-08-17T18:09:15.484Z,8.23
2022-08-17T18:11:36.309Z,8.52
2022-08-17T18:14:01.996Z,8.20
2022-08-17T18:16:10.610Z,8.68
2022-08-17T18:18:15.222Z,8.40
2022-08-17T18:20:36.468Z,9.07
2022-08-17T18:22:47.250Z,9.43
2022-08-17T18:24:56.559Z,9.02
2022-08-17T18:27:01.971Z,9.65
2022-08-17T18:29:30.302Z,9.07
2022-08-17T18:31:32.358Z,8.45
2022-08-17T18:33:34.966Z,8.60
2022-08-17T18:35:36.781Z,8.40
2022-08-17T18:37:45.008Z,8.20
2022-08-17T18:39:46.894Z,8.07
2022-08-17T18:41:53.165Z,7.55
2022-08-17T18:44:04.814Z,7.93
2022-08-17T18:46:30.072Z,7.10
2022-08-17T18:48:52.803Z,7.00
2022-08-17T18:51:00.353Z,7.03
2022-08-17T18:53:33.537Z,7.10
2022-08-17T18:55:36.116Z,7.72
2022-08-17T18:57:48.745Z,8.15
2022-08-17T18:59:50.743Z,7.00
2022-08-17T19:02:15.304Z,7.07
2022-08-17T19:04:34.519Z,7.70
2022-08-17T19:06:37.977Z,7.57
2022-08-17T19:08:40.325Z,8.27
2022-08-17T19:10:46.967Z,7.60
2022-08-17T19:13:00.744Z,7.65
2022-08-17T19:15:04.413Z,7.90
2022-08-17T19:17:21.084Z,7.72
2022-08-17T19:19:51.016Z,7.68
2022-08-17T19:22:13.673Z,7.68
2022-08-17T19:24:26.540Z,8.02
2022-08-17T19:26:51.124Z,7.95
2022-08-17T19:29:04.007Z,6.80
2022-08-17T19:31:16.789Z,6.93
2022-08-17T19:33:22.192Z,7.55
2022-08-17T19:35:32.398Z,7.43
2022-08-17T19:38:00.759Z,6.70
2022-08-17T19:40:29.257Z,7.00
2022-08-17T19:42:52.870Z,7.80
2022-08-17T19:45:04.073Z,6.85
2022-08-17T19:47:19.555Z,6.88
2022-08-17T19:50:00.931Z,10.27
2022-08-17T19:52:34.277Z,7.13
2022-08-17T19:54:55.727Z,6.90
2022-08-17T19:57:35.055Z,6.80
2022-08-17T20:00:09.682Z,6.32
2022-08-17T20:02:35.538Z,8.70
2022-08-17T20:04:43.396Z,6.72
2022-08-17T20:06:49.526Z,7.15
2022-08-17T20:09:14.336Z,7.78
2022-08-17T20:11:31.715Z,6.93
2022-08-17T20:13:45.007Z,7.85
2022-08-17T20:15:47.932Z,7.47
2022-08-17T20:17:51.053Z,7.13
2022-08-17T20:20:20.259Z,7.78
2022-08-17T20:22:51.910Z,6.38
2022-08-17T20:24:57.764Z,6.55
2022-08-17T20:27:12.337Z,6.68
2022-08-17T20:29:14.409Z,6.90
2022-08-17T20:31:56.262Z,4.82
2022-08-17T20:34:33.752Z,5.38
2022-08-17T20:39:00.362Z,4.82
2022-08-17T20:41:10.314Z,5.50
2022-08-17T20:43:33.475Z,4.28
2022-08-17T20:45:53.128Z,5.00
2022-08-17T20:50:32.499Z,3.75
2022-08-17T20:52:51.732Z,4.00
2022-08-17T20:54:57.604Z,4.10
2022-08-17T20:57:01.128Z,3.80
2022-08-17T20:59:03.679Z,4.25
2022-08-17T21:01:14.977Z,3.92
2022-08-17T21:03:28.333Z,3.40
2022-08-17T21:06:17.245Z,4.32
2022-08-17T21:08:29.703Z,3.85
2022-08-17T21:10:35.876Z,4.20
2022-08-17T21:13:04.604Z,4.95
2022-08-17T21:15:17.210Z,4.63
2022-08-17T21:17:38.463Z,5.20
2022-08-17T21:20:13.801Z,4.68
2022-08-17T21:22:43.380Z,4.53
2022-08-17T21:25:37.255Z,4.32
2022-08-17T21:27:58.752Z,3.53
2022-08-17T21:30:06.717Z,4.47
2022-08-17T21:32:23.761Z,4.20
2022-08-17T21:34:38.894Z,4.78
2022-08-17T21:36:41.983Z,4.22
2022-08-17T21:38:57.381Z,4.38
2022-08-17T21:40:59.596Z,4.30
2022-08-17T21:43:23.628Z,4.03
2022-08-17T21:45:32.244Z,4.13
2022-08-17T21:47:35.017Z,4.47
2022-08-17T21:49:37.813Z,4.47
2022-08-17T21:51:56.511Z,4.25
2022-08-17T21:54:05.206Z,4.30
2022-08-17T21:56:13.032Z,5.18
2022-08-17T21:58:39.980Z,5.03
2022-08-17T22:00:44.515Z,4.35
2022-08-17T22:02:55.428Z,4.03
2022-08-17T22:07:03.672Z,3.63
2022-08-17T22:09:13.020Z,4.13
2022-08-17T22:11:17.032Z,3.58
2022-08-17T22:13:19.838Z,4.05
2022-08-17T22:15:21.786Z,4.20
2022-08-17T22:17:27.304Z,5.18
2022-08-17T22:19:30.457Z,4.88
2022-08-17T22:21:32.186Z,4.75
2022-08-17T22:23:59.454Z,3.80
2022-08-17T22:26:09.569Z,4.00
2022-08-17T22:28:39.773Z,5.45
2022-08-17T22:31:01.697Z,4.90
2022-08-17T22:33:31.446Z,3.83
2022-08-17T22:35:43.266Z,3.55
2022-08-17T22:37:45.540Z,2.95
2022-08-17T22:39:58.114Z,3.83
2022-08-17T22:42:00.934Z,3.13
2022-08-17T22:44:29.672Z,3.47
2022-08-17T22:46:47.731Z,4.00
2022-08-17T22:48:52.773Z,3.70
2022-08-17T22:51:18.301Z,3.55
2022-08-17T22:53:41.979Z,3.42
2022-08-17T22:56:14.531Z,3.78
2022-08-17T22:58:38.396Z,3.67
2022-08-17T23:00:45.693Z,3.88
2022-08-17T23:03:05.699Z,3.70
2022-08-17T23:05:13.356Z,3.38
2022-08-17T23:07:15.440Z,3.70
2022-08-17T23:09:17.322Z,3.20
2022-08-17T23:11:19.096Z,3.95
2022-08-17T23:13:38.148Z,4.15
2022-08-17T23:15:41.131Z,3.67
2022-08-17T23:17:45.259Z,4.28
2022-08-17T23:19:47.243Z,3.25
2022-08-17T23:21:55.722Z,4.00
2022-08-17T23:23:59.344Z,3.05
2022-08-17T23:26:05.394Z,3.72
2022-08-17T23:28:07.290Z,3.80
2022-08-17T23:30:10.739Z,3.85
2022-08-17T23:32:15.896Z,4.03
2022-08-17T23:34:18.665Z,3.88
2022-08-17T23:36:20.404Z,3.20
2022-08-17T23:38:22.652Z,3.15
2022-08-17T23:40:24.767Z,4.07
2022-08-17T23:42:28.734Z,3.90
2022-08-17T23:44:31.139Z,3.55
2022-08-17T23:46:32.915Z,3.80
2022-08-17T23:48:35.816Z,3.70
2022-08-17T23:50:38.775Z,3.50
2022-08-17T23:52:43.371Z,4.00
2022-08-17T23:54:46.864Z,3.10
2022-08-17T23:56:48.799Z,3.78
2022-08-17T23:58:51.439Z,3.33
